sensor_id;sensor_type;location;lat;lon;timestamp;pressure;altitude;pressure_sealevel;temperature;humidity
58295;BME280;45705;55.592;37.460;2024-02-21T00:00:55;99934.81;;;-9.12;100.00
58295;BME280;45705;55.592;37.460;2024-02-21T00:03:20;99921.81;;;-9.13;100.00
58295;BME280;45705;55.592;37.460;2024-02-21T00:05:46;99923.63;;;-9.14;100.00
58295;BME280;45705;55.592;37.460;2024-02-21T00:08:12;99922.31;;;-9.09;100.00
58295;BME280;45705;55.592;37.460;2024-02-21T00:10:38;99921.34;;;-9.08;100.00
58295;BME280;45705;55.592;37.460;2024-02-21T00:13:04;99916.72;;;-9.06;100.00
58295;BME280;45705;55.592;37.460;2024-02-21T00:15:29;99912.28;;;-9.06;100.00
58295;BME280;45705;55.592;37.460;2024-02-21T00:17:55;99915.75;;;-8.97;100.00
58295;BME280;45705;55.592;37.460;2024-02-21T00:20:21;99906.38;;;-8.92;100.00
58295;BME280;45705;55.592;37.460;2024-02-21T00:22:47;99916.06;;;-9.00;100.00
58295;BME280;45705;55.592;37.460;2024-02-21T00:25:13;99921.84;;;-9.05;100.00
58295;BME280;45705;55.592;37.460;2024-02-21T00:27:38;99912.28;;;-8.98;100.00
58295;BME280;45705;55.592;37.460;2024-02-21T00:30:05;99925.66;;;-8.91;100.00
58295;BME280;45705;55.592;37.460;2024-02-21T00:32:31;99914.13;;;-8.82;100.00
58295;BME280;45705;55.592;37.460;2024-02-21T00:35:00;99919.56;;;-8.92;100.00
58295;BME280;45705;55.592;37.460;2024-02-21T00:37:27;99912.13;;;-8.96;100.00
58295;BME280;45705;55.592;37.460;2024-02-21T00:39:56;99897.13;;;-8.96;100.00
58295;BME280;45705;55.592;37.460;2024-02-21T00:42:22;99899.28;;;-8.83;100.00
58295;BME280;45705;55.592;37.460;2024-02-21T00:44:48;99905.22;;;-8.81;100.00
58295;BME280;45705;55.592;37.460;2024-02-21T00:47:13;99887.44;;;-8.87;100.00
58295;BME280;45705;55.592;37.460;2024-02-21T00:49:39;99898.63;;;-8.85;100.00
58295;BME280;45705;55.592;37.460;2024-02-21T00:52:05;99882.81;;;-8.85;100.00
58295;BME280;45705;55.592;37.460;2024-02-21T00:54:30;99892.88;;;-8.64;100.00
58295;BME280;45705;55.592;37.460;2024-02-21T00:56:56;99891.31;;;-8.34;100.00
58295;BME280;45705;55.592;37.460;2024-02-21T00:59:22;99884.78;;;-8.46;100.00
58295;BME280;45705;55.592;37.460;2024-02-21T01:01:47;99870.81;;;-8.55;99.91
58295;BME280;45705;55.592;37.460;2024-02-21T01:04:13;99881.81;;;-8.43;99.77
58295;BME280;45705;55.592;37.460;2024-02-21T01:06:39;99880.19;;;-8.60;100.00
58295;BME280;45705;55.592;37.460;2024-02-21T01:09:08;99876.34;;;-8.41;100.00
58295;BME280;45705;55.592;37.460;2024-02-21T01:11:34;99876.34;;;-8.33;99.45
58295;BME280;45705;55.592;37.460;2024-02-21T01:14:00;99876.47;;;-8.26;99.32
58295;BME280;45705;55.592;37.460;2024-02-21T01:16:26;99871.19;;;-8.26;99.18
58295;BME280;45705;55.592;37.460;2024-02-21T01:18:51;99874.16;;;-8.21;99.27
58295;BME280;45705;55.592;37.460;2024-02-21T01:21:17;99869.38;;;-8.18;98.97
58295;BME280;45705;55.592;37.460;2024-02-21T01:23:43;99867.88;;;-8.20;99.31
58295;BME280;45705;55.592;37.460;2024-02-21T01:26:09;99865.25;;;-8.12;99.38
58295;BME280;45705;55.592;37.460;2024-02-21T01:28:38;99872.16;;;-8.11;98.67
58295;BME280;45705;55.592;37.460;2024-02-21T01:31:04;99861.44;;;-8.09;98.73
58295;BME280;45705;55.592;37.460;2024-02-21T01:33:29;99866.53;;;-8.08;98.62
58295;BME280;45705;55.592;37.460;2024-02-21T01:36:01;99862.88;;;-7.99;98.30
58295;BME280;45705;55.592;37.460;2024-02-21T01:38:28;99865.13;;;-7.87;98.24
58295;BME280;45705;55.592;37.460;2024-02-21T01:40:54;99861.91;;;-8.06;98.35
58295;BME280;45705;55.592;37.460;2024-02-21T01:43:20;99854.66;;;-8.04;98.50
58295;BME280;45705;55.592;37.460;2024-02-21T01:45:57;99852.06;;;-8.12;98.83
58295;BME280;45705;55.592;37.460;2024-02-21T01:48:24;99853.66;;;-7.95;98.48
58295;BME280;45705;55.592;37.460;2024-02-21T01:50:51;99852.97;;;-7.88;98.71
58295;BME280;45705;55.592;37.460;2024-02-21T01:53:38;99845.72;;;-7.95;98.93
58295;BME280;45705;55.592;37.460;2024-02-21T01:56:08;99847.88;;;-7.98;98.92
58295;BME280;45705;55.592;37.460;2024-02-21T01:58:36;99839.72;;;-7.80;98.64
58295;BME280;45705;55.592;37.460;2024-02-21T02:01:03;99825.34;;;-7.78;98.14
58295;BME280;45705;55.592;37.460;2024-02-21T02:03:29;99837.59;;;-7.85;98.56
58295;BME280;45705;55.592;37.460;2024-02-21T02:05:55;99829.38;;;-7.90;98.61
58295;BME280;45705;55.592;37.460;2024-02-21T02:08:21;99832.34;;;-7.93;99.22
58295;BME280;45705;55.592;37.460;2024-02-21T02:10:48;99827.47;;;-7.73;98.78
58295;BME280;45705;55.592;37.460;2024-02-21T02:13:14;99834.75;;;-7.83;98.75
58295;BME280;45705;55.592;37.460;2024-02-21T02:15:45;99824.63;;;-7.63;99.17
58295;BME280;45705;55.592;37.460;2024-02-21T02:18:12;99815.22;;;-7.66;98.60
58295;BME280;45705;55.592;37.460;2024-02-21T02:20:39;99807.72;;;-7.77;98.19
58295;BME280;45705;55.592;37.460;2024-02-21T02:25:47;99811.00;;;-7.75;99.69
58295;BME280;45705;55.592;37.460;2024-02-21T02:28:18;99823.53;;;-7.77;99.57
58295;BME280;45705;55.592;37.460;2024-02-21T02:30:44;99824.16;;;-7.67;99.80
58295;BME280;45705;55.592;37.460;2024-02-21T02:33:10;99821.50;;;-7.67;99.58
58295;BME280;45705;55.592;37.460;2024-02-21T02:35:36;99827.75;;;-7.68;99.61
58295;BME280;45705;55.592;37.460;2024-02-21T02:38:04;99826.41;;;-7.56;99.63
58295;BME280;45705;55.592;37.460;2024-02-21T02:40:32;99828.50;;;-7.51;99.55
58295;BME280;45705;55.592;37.460;2024-02-21T02:42:59;99809.94;;;-7.66;98.91
58295;BME280;45705;55.592;37.460;2024-02-21T02:45:25;99821.13;;;-7.56;99.36
58295;BME280;45705;55.592;37.460;2024-02-21T02:47:53;99824.34;;;-7.45;99.89
58295;BME280;45705;55.592;37.460;2024-02-21T02:50:23;99824.28;;;-7.37;99.48
58295;BME280;45705;55.592;37.460;2024-02-21T02:52:49;99813.38;;;-7.34;98.75
58295;BME280;45705;55.592;37.460;2024-02-21T02:55:15;99822.91;;;-7.25;98.33
58295;BME280;45705;55.592;37.460;2024-02-21T02:57:42;99820.44;;;-7.26;97.90
58295;BME280;45705;55.592;37.460;2024-02-21T03:00:10;99804.34;;;-7.17;97.80
58295;BME280;45705;55.592;37.460;2024-02-21T03:02:38;99823.47;;;-7.15;98.09
58295;BME280;45705;55.592;37.460;2024-02-21T03:07:43;99811.03;;;-7.29;98.53
58295;BME280;45705;55.592;37.460;2024-02-21T03:10:10;99819.41;;;-7.25;98.82
58295;BME280;45705;55.592;37.460;2024-02-21T03:12:36;99815.06;;;-6.95;97.57
58295;BME280;45705;55.592;37.460;2024-02-21T03:15:03;99815.25;;;-7.20;98.28
58295;BME280;45705;55.592;37.460;2024-02-21T03:17:31;99811.50;;;-7.02;97.64
58295;BME280;45705;55.592;37.460;2024-02-21T03:20:01;99811.50;;;-7.02;98.05
58295;BME280;45705;55.592;37.460;2024-02-21T03:22:31;99799.28;;;-7.03;98.24
58295;BME280;45705;55.592;37.460;2024-02-21T03:25:00;99798.56;;;-6.97;98.14
58295;BME280;45705;55.592;37.460;2024-02-21T03:27:30;99804.97;;;-7.15;98.94
58295;BME280;45705;55.592;37.460;2024-02-21T03:29:56;99797.56;;;-7.19;98.92
58295;BME280;45705;55.592;37.460;2024-02-21T03:32:22;99798.78;;;-6.84;98.90
58295;BME280;45705;55.592;37.460;2024-02-21T03:34:48;99809.91;;;-6.74;97.66
58295;BME280;45705;55.592;37.460;2024-02-21T03:37:13;99803.19;;;-6.76;96.62
58295;BME280;45705;55.592;37.460;2024-02-21T03:39:40;99801.13;;;-6.89;96.75
58295;BME280;45705;55.592;37.460;2024-02-21T03:42:06;99788.84;;;-6.82;95.69
58295;BME280;45705;55.592;37.460;2024-02-21T03:44:32;99796.06;;;-6.76;96.07
58295;BME280;45705;55.592;37.460;2024-02-21T03:47:01;99788.03;;;-6.67;96.57
58295;BME280;45705;55.592;37.460;2024-02-21T03:49:27;99803.44;;;-6.71;95.87
58295;BME280;45705;55.592;37.460;2024-02-21T03:51:53;99803.13;;;-6.91;95.99
58295;BME280;45705;55.592;37.460;2024-02-21T03:54:19;99809.47;;;-7.00;97.30
58295;BME280;45705;55.592;37.460;2024-02-21T03:56:45;99802.41;;;-6.85;97.73
58295;BME280;45705;55.592;37.460;2024-02-21T03:59:13;99807.59;;;-6.91;97.77
58295;BME280;45705;55.592;37.460;2024-02-21T04:01:39;99804.53;;;-6.80;98.14
58295;BME280;45705;55.592;37.460;2024-02-21T04:04:05;99806.84;;;-6.62;97.81
58295;BME280;45705;55.592;37.460;2024-02-21T04:06:30;99806.69;;;-6.61;96.59
58295;BME280;45705;55.592;37.460;2024-02-21T04:08:56;99810.06;;;-6.37;95.25
58295;BME280;45705;55.592;37.460;2024-02-21T04:11:22;99801.56;;;-6.62;95.34
58295;BME280;45705;55.592;37.460;2024-02-21T04:13:48;99799.63;;;-6.54;95.64
58295;BME280;45705;55.592;37.460;2024-02-21T04:16:17;99807.38;;;-6.67;95.47
58295;BME280;45705;55.592;37.460;2024-02-21T04:18:43;99809.09;;;-6.74;96.49
58295;BME280;45705;55.592;37.460;2024-02-21T04:21:09;99807.78;;;-6.55;96.25
58295;BME280;45705;55.592;37.460;2024-02-21T04:23:35;99801.19;;;-6.59;96.38
58295;BME280;45705;55.592;37.460;2024-02-21T04:26:01;99805.56;;;-6.66;96.25
58295;BME280;45705;55.592;37.460;2024-02-21T04:28:27;99806.38;;;-6.66;96.53
58295;BME280;45705;55.592;37.460;2024-02-21T04:30:53;99816.16;;;-6.66;97.06
58295;BME280;45705;55.592;37.460;2024-02-21T04:33:19;99826.25;;;-6.70;97.26
58295;BME280;45705;55.592;37.460;2024-02-21T04:35:44;99819.59;;;-6.66;97.06
58295;BME280;45705;55.592;37.460;2024-02-21T04:38:10;99816.25;;;-6.45;97.38
58295;BME280;45705;55.592;37.460;2024-02-21T04:40:36;99815.69;;;-6.70;97.17
58295;BME280;45705;55.592;37.460;2024-02-21T04:43:03;99804.97;;;-6.77;97.87
58295;BME280;45705;55.592;37.460;2024-02-21T04:45:28;99812.41;;;-6.57;97.06
58295;BME280;45705;55.592;37.460;2024-02-21T04:47:54;99827.19;;;-6.63;97.10
58295;BME280;45705;55.592;37.460;2024-02-21T04:50:20;99818.91;;;-6.45;96.89
58295;BME280;45705;55.592;37.460;2024-02-21T04:52:46;99821.19;;;-6.57;97.06
58295;BME280;45705;55.592;37.460;2024-02-21T04:55:11;99821.66;;;-6.53;96.82
58295;BME280;45705;55.592;37.460;2024-02-21T04:57:37;99817.16;;;-6.53;97.72
58295;BME280;45705;55.592;37.460;2024-02-21T05:00:03;99819.09;;;-6.46;96.84
58295;BME280;45705;55.592;37.460;2024-02-21T05:02:30;99814.25;;;-6.43;97.14
58295;BME280;45705;55.592;37.460;2024-02-21T05:04:56;99814.25;;;-6.43;96.63
58295;BME280;45705;55.592;37.460;2024-02-21T05:07:22;99813.16;;;-6.48;96.47
58295;BME280;45705;55.592;37.460;2024-02-21T05:09:47;99818.34;;;-6.55;96.71
58295;BME280;45705;55.592;37.460;2024-02-21T05:12:13;99803.03;;;-6.45;97.11
58295;BME280;45705;55.592;37.460;2024-02-21T05:14:39;99792.53;;;-6.38;96.78
58295;BME280;45705;55.592;37.460;2024-02-21T05:17:05;99811.22;;;-6.40;96.73
58295;BME280;45705;55.592;37.460;2024-02-21T05:19:30;99814.44;;;-6.44;96.88
58295;BME280;45705;55.592;37.460;2024-02-21T05:21:56;99812.53;;;-6.36;96.84
58295;BME280;45705;55.592;37.460;2024-02-21T05:24:22;99809.81;;;-6.12;96.14
58295;BME280;45705;55.592;37.460;2024-02-21T05:26:48;99811.22;;;-6.40;95.39
58295;BME280;45705;55.592;37.460;2024-02-21T05:29:13;99812.63;;;-6.29;96.15
58295;BME280;45705;55.592;37.460;2024-02-21T05:31:54;99810.34;;;-6.17;95.58
58295;BME280;45705;55.592;37.460;2024-02-21T05:34:21;99817.91;;;-6.29;95.74
58295;BME280;45705;55.592;37.460;2024-02-21T05:36:47;99813.81;;;-6.31;96.06
58295;BME280;45705;55.592;37.460;2024-02-21T05:39:15;99810.53;;;-6.34;96.26
58295;BME280;45705;55.592;37.460;2024-02-21T05:41:42;99809.59;;;-6.11;95.92
58295;BME280;45705;55.592;37.460;2024-02-21T05:44:08;99807.34;;;-6.14;96.02
58295;BME280;45705;55.592;37.460;2024-02-21T05:46:34;99808.72;;;-6.18;95.12
58295;BME280;45705;55.592;37.460;2024-02-21T05:49:01;99808.53;;;-6.31;95.50
58295;BME280;45705;55.592;37.460;2024-02-21T05:51:27;99810.72;;;-6.20;95.23
58295;BME280;45705;55.592;37.460;2024-02-21T05:53:53;99796.56;;;-6.12;95.52
58295;BME280;45705;55.592;37.460;2024-02-21T05:56:19;99812.88;;;-6.09;94.53
58295;BME280;45705;55.592;37.460;2024-02-21T05:58:44;99814.00;;;-6.18;95.15
58295;BME280;45705;55.592;37.460;2024-02-21T06:01:11;99812.00;;;-6.16;94.97
58295;BME280;45705;55.592;37.460;2024-02-21T06:03:37;99806.41;;;-5.70;95.04
58295;BME280;45705;55.592;37.460;2024-02-21T06:06:03;99797.31;;;-5.82;93.35
58295;BME280;45705;55.592;37.460;2024-02-21T06:08:31;99802.53;;;-5.89;93.22
58295;BME280;45705;55.592;37.460;2024-02-21T06:10:57;99808.63;;;-5.88;92.95
58295;BME280;45705;55.592;37.460;2024-02-21T06:13:26;99803.50;;;-5.75;93.48
58295;BME280;45705;55.592;37.460;2024-02-21T06:15:52;99802.25;;;-5.79;92.73
58295;BME280;45705;55.592;37.460;2024-02-21T06:18:19;99804.66;;;-5.63;91.54
58295;BME280;45705;55.592;37.460;2024-02-21T06:20:45;99813.66;;;-5.79;92.00
58295;BME280;45705;55.592;37.460;2024-02-21T06:23:16;99806.25;;;-5.83;92.30
58295;BME280;45705;55.592;37.460;2024-02-21T06:25:42;99796.69;;;-5.63;92.54
58295;BME280;45705;55.592;37.460;2024-02-21T06:28:08;99806.66;;;-5.65;92.01
58295;BME280;45705;55.592;37.460;2024-02-21T06:30:35;99813.28;;;-5.76;92.55
58295;BME280;45705;55.592;37.460;2024-02-21T06:33:01;99811.69;;;-5.70;92.58
58295;BME280;45705;55.592;37.460;2024-02-21T06:35:28;99805.69;;;-5.64;91.46
58295;BME280;45705;55.592;37.460;2024-02-21T06:37:54;99805.75;;;-5.57;91.22
58295;BME280;45705;55.592;37.460;2024-02-21T06:40:21;99814.53;;;-5.35;90.67
58295;BME280;45705;55.592;37.460;2024-02-21T06:42:48;99807.88;;;-5.31;91.02
58295;BME280;45705;55.592;37.460;2024-02-21T06:45:15;99814.91;;;-5.38;89.74
58295;BME280;45705;55.592;37.460;2024-02-21T06:47:41;99810.88;;;-5.34;90.18
58295;BME280;45705;55.592;37.460;2024-02-21T06:50:07;99816.19;;;-5.34;90.06
58295;BME280;45705;55.592;37.460;2024-02-21T06:52:34;99812.53;;;-5.33;89.57
58295;BME280;45705;55.592;37.460;2024-02-21T06:55:00;99811.31;;;-5.30;89.79
58295;BME280;45705;55.592;37.460;2024-02-21T06:57:26;99813.34;;;-5.32;89.70
58295;BME280;45705;55.592;37.460;2024-02-21T06:59:52;99809.47;;;-5.51;90.07
58295;BME280;45705;55.592;37.460;2024-02-21T07:02:18;99806.03;;;-5.30;89.78
58295;BME280;45705;55.592;37.460;2024-02-21T07:04:44;99804.44;;;-5.25;90.60
58295;BME280;45705;55.592;37.460;2024-02-21T07:07:09;99804.19;;;-5.08;88.92
58295;BME280;45705;55.592;37.460;2024-02-21T07:09:35;99798.41;;;-4.90;87.61
58295;BME280;45705;55.592;37.460;2024-02-21T07:12:01;99793.66;;;-5.02;87.48
58295;BME280;45705;55.592;37.460;2024-02-21T07:14:31;99787.59;;;-4.32;85.72
58295;BME280;45705;55.592;37.460;2024-02-21T07:16:58;99797.91;;;-4.16;82.71
58295;BME280;45705;55.592;37.460;2024-02-21T07:19:23;99776.97;;;-4.32;83.06
58295;BME280;45705;55.592;37.460;2024-02-21T07:21:52;99783.16;;;-4.25;81.63
58295;BME280;45705;55.592;37.460;2024-02-21T07:24:18;99761.44;;;-3.06;76.51
58295;BME280;45705;55.592;37.460;2024-02-21T07:26:44;99765.81;;;-2.13;70.15
58295;BME280;45705;55.592;37.460;2024-02-21T07:29:10;99778.00;;;-2.57;69.45
58295;BME280;45705;55.592;37.460;2024-02-21T07:31:43;99781.44;;;-2.43;68.67
58295;BME280;45705;55.592;37.460;2024-02-21T07:34:10;99779.00;;;-2.58;69.90
58295;BME280;45705;55.592;37.460;2024-02-21T07:36:36;99758.72;;;-2.46;68.89
58295;BME280;45705;55.592;37.460;2024-02-21T07:39:05;99772.22;;;-2.41;67.87
58295;BME280;45705;55.592;37.460;2024-02-21T07:41:31;99774.00;;;-2.14;68.07
58295;BME280;45705;55.592;37.460;2024-02-21T07:43:59;99767.19;;;-1.97;66.25
58295;BME280;45705;55.592;37.460;2024-02-21T07:46:25;99785.94;;;-2.30;66.39
58295;BME280;45705;55.592;37.460;2024-02-21T07:48:51;99785.56;;;-3.07;69.32
58295;BME280;45705;55.592;37.460;2024-02-21T07:51:17;99776.16;;;-3.17;70.78
58295;BME280;45705;55.592;37.460;2024-02-21T07:53:44;99777.81;;;-3.15;71.50
58295;BME280;45705;55.592;37.460;2024-02-21T07:56:11;99778.44;;;-3.00;71.03
58295;BME280;45705;55.592;37.460;2024-02-21T07:58:37;99747.94;;;-3.04;70.79
58295;BME280;45705;55.592;37.460;2024-02-21T08:01:03;99772.06;;;-3.12;72.61
58295;BME280;45705;55.592;37.460;2024-02-21T08:03:30;99786.53;;;-3.48;73.50
58295;BME280;45705;55.592;37.460;2024-02-21T08:05:55;99778.53;;;-3.62;74.89
58295;BME280;45705;55.592;37.460;2024-02-21T08:08:21;99784.16;;;-3.85;75.75
58295;BME280;45705;55.592;37.460;2024-02-21T08:10:48;99768.75;;;-3.28;75.70
58295;BME280;45705;55.592;37.460;2024-02-21T08:13:14;99777.31;;;-3.52;75.52
58295;BME280;45705;55.592;37.460;2024-02-21T08:15:41;99775.06;;;-3.56;74.28
58295;BME280;45705;55.592;37.460;2024-02-21T08:18:07;99773.25;;;-3.48;75.67
58295;BME280;45705;55.592;37.460;2024-02-21T08:20:33;99760.56;;;-3.46;74.23
58295;BME280;45705;55.592;37.460;2024-02-21T08:23:00;99771.59;;;-3.49;74.25
58295;BME280;45705;55.592;37.460;2024-02-21T08:25:26;99776.25;;;-3.65;76.10
58295;BME280;45705;55.592;37.460;2024-02-21T08:27:58;99773.16;;;-3.75;75.95
58295;BME280;45705;55.592;37.460;2024-02-21T08:30:24;99776.31;;;-4.06;76.78
58295;BME280;45705;55.592;37.460;2024-02-21T08:32:50;99783.03;;;-3.56;76.86
58295;BME280;45705;55.592;37.460;2024-02-21T08:35:16;99783.59;;;-3.73;77.14
58295;BME280;45705;55.592;37.460;2024-02-21T08:37:44;99758.50;;;-3.58;76.17
58295;BME280;45705;55.592;37.460;2024-02-21T08:40:10;99774.13;;;-3.21;75.66
58295;BME280;45705;55.592;37.460;2024-02-21T08:42:38;99768.75;;;-3.28;75.38
58295;BME280;45705;55.592;37.460;2024-02-21T08:45:04;99771.44;;;-3.41;74.60
58295;BME280;45705;55.592;37.460;2024-02-21T08:47:31;99769.97;;;-3.50;75.83
58295;BME280;45705;55.592;37.460;2024-02-21T08:49:57;99771.03;;;-3.25;74.94
58295;BME280;45705;55.592;37.460;2024-02-21T08:52:22;99759.38;;;-3.24;74.72
58295;BME280;45705;55.592;37.460;2024-02-21T08:54:48;99757.31;;;-3.08;73.96
58295;BME280;45705;55.592;37.460;2024-02-21T08:57:14;99762.25;;;-3.19;74.15
58295;BME280;45705;55.592;37.460;2024-02-21T08:59:40;99756.09;;;-3.26;74.24
58295;BME280;45705;55.592;37.460;2024-02-21T09:02:06;99762.63;;;-3.48;74.81
58295;BME280;45705;55.592;37.460;2024-02-21T09:04:33;99764.63;;;-3.57;75.14
58295;BME280;45705;55.592;37.460;2024-02-21T09:06:59;99769.13;;;-3.64;76.18
58295;BME280;45705;55.592;37.460;2024-02-21T09:09:25;99757.66;;;-3.65;77.10
58295;BME280;45705;55.592;37.460;2024-02-21T09:11:51;99730.28;;;-3.59;75.06
58295;BME280;45705;55.592;37.460;2024-02-21T09:14:17;99758.75;;;-3.26;74.67
58295;BME280;45705;55.592;37.460;2024-02-21T09:16:43;99756.91;;;-3.32;75.58
58295;BME280;45705;55.592;37.460;2024-02-21T09:19:09;99752.84;;;-3.08;74.49
58295;BME280;45705;55.592;37.460;2024-02-21T09:21:37;99740.34;;;-3.34;75.40
58295;BME280;45705;55.592;37.460;2024-02-21T09:24:04;99741.78;;;-3.18;74.64
58295;BME280;45705;55.592;37.460;2024-02-21T09:26:31;99724.16;;;-3.52;74.95
58295;BME280;45705;55.592;37.460;2024-02-21T09:28:57;99738.50;;;-3.27;75.76
58295;BME280;45705;55.592;37.460;2024-02-21T09:31:22;99737.09;;;-3.09;75.03
58295;BME280;45705;55.592;37.460;2024-02-21T09:33:49;99741.34;;;-2.55;74.09
58295;BME280;45705;55.592;37.460;2024-02-21T09:36:14;99732.38;;;-2.94;73.42
58295;BME280;45705;55.592;37.460;2024-02-21T09:38:40;99727.88;;;-3.13;73.82
58295;BME280;45705;55.592;37.460;2024-02-21T09:41:33;99739.69;;;-3.49;74.93
58295;BME280;45705;55.592;37.460;2024-02-21T09:44:02;99741.31;;;-3.62;76.65
58295;BME280;45705;55.592;37.460;2024-02-21T09:46:51;99736.44;;;-3.58;77.32
58295;BME280;45705;55.592;37.460;2024-02-21T09:49:32;99732.97;;;-3.32;76.49
58295;BME280;45705;55.592;37.460;2024-02-21T09:52:03;99744.19;;;-3.57;76.08
58295;BME280;45705;55.592;37.460;2024-02-21T09:54:30;99727.81;;;-3.67;76.70
58295;BME280;45705;55.592;37.460;2024-02-21T09:56:56;99731.72;;;-3.56;76.95
58295;BME280;45705;55.592;37.460;2024-02-21T09:59:23;99728.66;;;-3.60;77.26
58295;BME280;45705;55.592;37.460;2024-02-21T10:01:49;99727.84;;;-3.33;76.98
58295;BME280;45705;55.592;37.460;2024-02-21T10:04:16;99732.34;;;-3.47;76.72
58295;BME280;45705;55.592;37.460;2024-02-21T10:06:44;99731.56;;;-3.41;76.44
58295;BME280;45705;55.592;37.460;2024-02-21T10:09:20;99737.19;;;-3.71;77.53
58295;BME280;45705;55.592;37.460;2024-02-21T10:11:46;99729.69;;;-3.54;77.46
58295;BME280;45705;55.592;37.460;2024-02-21T10:14:12;99715.16;;;-3.51;77.94
58295;BME280;45705;55.592;37.460;2024-02-21T10:16:38;99727.25;;;-3.42;77.54
58295;BME280;45705;55.592;37.460;2024-02-21T10:19:04;99722.53;;;-3.20;76.84
58295;BME280;45705;55.592;37.460;2024-02-21T10:21:29;99722.97;;;-3.17;76.27
58295;BME280;45705;55.592;37.460;2024-02-21T10:23:55;99727.06;;;-3.14;75.70
58295;BME280;45705;55.592;37.460;2024-02-21T10:26:21;99717.63;;;-3.17;75.60
58295;BME280;45705;55.592;37.460;2024-02-21T10:28:47;99716.41;;;-3.21;76.43
58295;BME280;45705;55.592;37.460;2024-02-21T10:31:23;99723.56;;;-3.34;76.21
58295;BME280;45705;55.592;37.460;2024-02-21T10:34:02;99725.00;;;-3.32;76.30
58295;BME280;45705;55.592;37.460;2024-02-21T10:36:28;99724.56;;;-3.56;76.73
58295;BME280;45705;55.592;37.460;2024-02-21T10:38:55;99722.94;;;-3.57;77.58
58295;BME280;45705;55.592;37.460;2024-02-21T10:41:21;99729.84;;;-3.69;78.37
58295;BME280;45705;55.592;37.460;2024-02-21T10:43:53;99717.59;;;-3.70;78.51
58295;BME280;45705;55.592;37.460;2024-02-21T10:46:21;99723.53;;;-3.68;78.98
58295;BME280;45705;55.592;37.460;2024-02-21T10:48:48;99721.06;;;-3.63;79.02
58295;BME280;45705;55.592;37.460;2024-02-21T10:51:23;99722.09;;;-3.57;78.95
58295;BME280;45705;55.592;37.460;2024-02-21T10:56:29;99720.03;;;-3.68;78.99
58295;BME280;45705;55.592;37.460;2024-02-21T10:58:57;99709.41;;;-3.75;80.10
58295;BME280;45705;55.592;37.460;2024-02-21T11:01:24;99712.28;;;-3.70;80.37
58295;BME280;45705;55.592;37.460;2024-02-21T11:03:53;99708.59;;;-3.76;80.26
58295;BME280;45705;55.592;37.460;2024-02-21T11:06:21;99705.34;;;-3.58;79.91
58295;BME280;45705;55.592;37.460;2024-02-21T11:08:48;99708.59;;;-3.69;79.79
58295;BME280;45705;55.592;37.460;2024-02-21T11:11:24;99705.88;;;-3.89;80.29
58295;BME280;45705;55.592;37.460;2024-02-21T11:13:49;99705.13;;;-3.76;80.26
58295;BME280;45705;55.592;37.460;2024-02-21T11:16:22;99698.41;;;-3.59;79.06
58295;BME280;45705;55.592;37.460;2024-02-21T11:18:48;99696.38;;;-3.57;79.34
58295;BME280;45705;55.592;37.460;2024-02-21T11:21:15;99700.22;;;-3.66;79.58
58295;BME280;45705;55.592;37.460;2024-02-21T11:23:41;99698.19;;;-3.57;78.83
58295;BME280;45705;55.592;37.460;2024-02-21T11:26:17;99691.66;;;-3.34;78.98
58295;BME280;45705;55.592;37.460;2024-02-21T11:28:56;99698.59;;;-3.53;78.25
58295;BME280;45705;55.592;37.460;2024-02-21T11:31:22;99687.91;;;-3.87;79.79
58295;BME280;45705;55.592;37.460;2024-02-21T11:33:48;99705.22;;;-3.98;80.42
58295;BME280;45705;55.592;37.460;2024-02-21T11:36:27;99703.19;;;-3.96;81.62
58295;BME280;45705;55.592;37.460;2024-02-21T11:38:54;99694.75;;;-4.19;82.54
58295;BME280;45705;55.592;37.460;2024-02-21T11:41:20;99695.97;;;-4.15;83.38
58295;BME280;45705;55.592;37.460;2024-02-21T11:43:49;99688.06;;;-4.02;82.93
58295;BME280;45705;55.592;37.460;2024-02-21T11:46:16;99685.59;;;-4.10;83.23
58295;BME280;45705;55.592;37.460;2024-02-21T11:48:42;99685.13;;;-4.27;84.04
58295;BME280;45705;55.592;37.460;2024-02-21T11:51:25;99692.56;;;-4.02;83.48
58295;BME280;45705;55.592;37.460;2024-02-21T11:53:52;99680.72;;;-4.06;83.75
58295;BME280;45705;55.592;37.460;2024-02-21T11:56:19;99675.78;;;-4.09;84.12
58295;BME280;45705;55.592;37.460;2024-02-21T11:58:49;99690.91;;;-4.10;83.89
58295;BME280;45705;55.592;37.460;2024-02-21T12:01:14;99693.06;;;-4.33;84.79
58295;BME280;45705;55.592;37.460;2024-02-21T12:03:42;99683.56;;;-4.14;85.83
58295;BME280;45705;55.592;37.460;2024-02-21T12:06:07;99679.22;;;-4.22;85.58
58295;BME280;45705;55.592;37.460;2024-02-21T12:08:45;99673.13;;;-4.16;85.13
58295;BME280;45705;55.592;37.460;2024-02-21T12:11:19;99682.06;;;-4.24;84.98
58295;BME280;45705;55.592;37.460;2024-02-21T12:13:45;99672.88;;;-4.28;85.01
58295;BME280;45705;55.592;37.460;2024-02-21T12:16:11;99678.94;;;-4.41;85.25
58295;BME280;45705;55.592;37.460;2024-02-21T12:18:39;99686.66;;;-4.52;86.11
58295;BME280;45705;55.592;37.460;2024-02-21T12:21:04;99674.50;;;-4.33;86.91
58295;BME280;45705;55.592;37.460;2024-02-21T12:23:30;99683.44;;;-4.41;86.56
58295;BME280;45705;55.592;37.460;2024-02-21T12:25:56;99682.81;;;-4.43;87.10
58295;BME280;45705;55.592;37.460;2024-02-21T12:28:24;99669.13;;;-4.47;87.44
58295;BME280;45705;55.592;37.460;2024-02-21T12:30:51;99671.34;;;-4.50;87.94
58295;BME280;45705;55.592;37.460;2024-02-21T12:33:18;99656.84;;;-4.55;88.18
58295;BME280;45705;55.592;37.460;2024-02-21T12:35:45;99661.53;;;-4.50;88.03
58295;BME280;45705;55.592;37.460;2024-02-21T12:38:11;99668.13;;;-4.46;88.00
58295;BME280;45705;55.592;37.460;2024-02-21T12:40:39;99666.63;;;-4.55;88.79
58295;BME280;45705;55.592;37.460;2024-02-21T12:43:04;99662.56;;;-4.51;88.68
58295;BME280;45705;55.592;37.460;2024-02-21T12:45:30;99666.16;;;-4.65;89.42
58295;BME280;45705;55.592;37.460;2024-02-21T12:47:56;99661.88;;;-4.66;89.44
58295;BME280;45705;55.592;37.460;2024-02-21T12:50:23;99654.81;;;-4.52;89.76
58295;BME280;45705;55.592;37.460;2024-02-21T12:52:49;99651.50;;;-4.61;90.43
58295;BME280;45705;55.592;37.460;2024-02-21T12:55:17;99651.88;;;-4.64;90.65
58295;BME280;45705;55.592;37.460;2024-02-21T12:57:43;99653.53;;;-4.63;91.18